20 mai 2022

Temps Code Temps Temp. Vue Des nuages Vent METAR/SPECI
18:30
V
27 °C 9 km - 290°   290° 10 kt METAR LFBE 201630Z AUTO 29010KT 250V310 9000 NSC 27/16 Q1022 NOSIG
18:00
V
27 °C 10 km+ - 280°   280° 9 kt METAR LFBE 201600Z AUTO 28009KT 240V310 CAVOK 27/17 Q1022 NOSIG
17:30
V
28 °C 10 km+ - 280°   280° 10 kt METAR LFBE 201530Z AUTO 28010KT CAVOK 28/17 Q1022 NOSIG
17:00
V
28 °C 10 km+ - 270°   270° 8 kt METAR LFBE 201500Z AUTO 27008KT 220V300 9999 FEW048 28/17 Q1022 NOSIG
16:30
V
28 °C 10 km+ - 250°   250° 10 kt METAR LFBE 201430Z AUTO 25010KT CAVOK 28/17 Q1022 NOSIG
16:00
V
28 °C 10 km+ - 260°   260° 8 kt METAR LFBE 201400Z AUTO 26008KT 230V300 CAVOK 28/16 Q1022 NOSIG
15:30
V
28 °C 10 km+ - 280°   280° 9 kt METAR LFBE 201330Z AUTO 28009KT CAVOK 28/17 Q1022 NOSIG
15:00
V
28 °C 10 km+ - 300°   300° 8 kt METAR LFBE 201300Z AUTO 30008KT 250V320 CAVOK 28/18 Q1022 NOSIG
14:30
V
28 °C 10 km+ - 260°   260° 5 kt METAR LFBE 201230Z AUTO 26005KT 230V310 CAVOK 28/18 Q1021 NOSIG
14:00
V
27 °C 10 km+ - 250°   250° 6 kt METAR LFBE 201200Z AUTO 25006KT 190V280 CAVOK 27/18 Q1021 NOSIG
13:30
V
27 °C 10 km+ - 270°   270° 9 kt METAR LFBE 201130Z AUTO 27009KT 220V290 CAVOK 27/17 Q1021 NOSIG
13:00
V
28 °C 10 km+ - 200°   200° 6 kt METAR LFBE 201100Z AUTO 20006KT 110V260 CAVOK 28/17 Q1021 NOSIG
12:30
V
27 °C 10 km+ - 200°   200° 4 kt METAR LFBE 201030Z AUTO 20004KT 150V260 CAVOK 27/17 Q1021 NOSIG
12:00
V
26 °C 10 km+ - 200°   200° 4 kt METAR LFBE 201000Z AUTO 20004KT 170V250 CAVOK 26/16 Q1021 NOSIG
11:30
V
25 °C 10 km+ - 180°   180° 6 kt METAR LFBE 200930Z AUTO 18006KT 150V220 CAVOK 25/16 Q1020 NOSIG
11:00
V
25 °C 10 km+ - 160°   160° 4 kt METAR LFBE 200900Z AUTO 16004KT 110V200 CAVOK 25/16 Q1020 NOSIG
10:30
V
24 °C 10 km+ - 180°   180° 3 kt METAR LFBE 200830Z AUTO 18003KT 120V230 CAVOK 24/16 Q1020 NOSIG
10:00
V
23 °C 10 km+ - 110°   110° 4 kt METAR LFBE 200800Z AUTO 11004KT 040V180 CAVOK 23/15 Q1019 NOSIG
09:30
V
21 °C 10 km+ - 130°   130° 5 kt METAR LFBE 200730Z AUTO 13005KT 060V180 CAVOK 21/14 Q1019 NOSIG
09:00
V
21 °C 10 km+ - 150°   150° 6 kt METAR LFBE 200700Z AUTO 15006KT 100V180 CAVOK 21/14 Q1019 NOSIG
08:30
V
20 °C 10 km+ - 130°   130° 7 kt METAR LFBE 200630Z AUTO 13007KT 090V160 CAVOK 20/14 Q1019 NOSIG
08:00
V
19 °C 10 km+ - 130°   130° 5 kt METAR LFBE 200600Z AUTO 13005KT 080V170 CAVOK 19/14 Q1019 NOSIG
07:30
V
18 °C 10 km+ - 100°   100° 4 kt METAR LFBE 200530Z AUTO 10004KT 040V180 CAVOK 18/14 Q1018 NOSIG
07:00
V
16 °C 10 km+ - 050°   050° 3 kt METAR LFBE 200500Z AUTO 05003KT 030V110 CAVOK 16/13 Q1018 NOSIG
06:30
V
15 °C 10 km+ - 080°   080° 5 kt METAR LFBE 200430Z AUTO 08005KT CAVOK 15/12 Q1017 NOSIG
06:00
V
16 °C 10 km+ - 090°   090° 4 kt METAR LFBE 200400Z AUTO 09004KT CAVOK 16/13 Q1018 NOSIG
05:30
V
16 °C 10 km+ - 080°   080° 6 kt METAR LFBE 200330Z AUTO 08006KT CAVOK 16/13 Q1017 NOSIG
05:00
V
16 °C 10 km+ - 090°   090° 5 kt METAR LFBE 200300Z AUTO 09005KT CAVOK 16/12 Q1017 NOSIG
04:30
V
16 °C 10 km+ - 090°   090° 6 kt METAR LFBE 200230Z AUTO 09006KT CAVOK 16/13 Q1017 NOSIG
04:00
V
16 °C 10 km+ - 070°   070° 3 kt METAR LFBE 200200Z AUTO 07003KT CAVOK 16/13 Q1017 NOSIG
03:30
V
17 °C 10 km+ - 090°   090° 3 kt METAR LFBE 200130Z AUTO 09003KT CAVOK 17/13 Q1017 NOSIG
03:00
V
17 °C 10 km+ - 100°   100° 4 kt METAR LFBE 200100Z AUTO 10004KT CAVOK 17/14 Q1018 TEMPO SCT050CB
02:30
V
17 °C 10 km+ - 100°   100° 4 kt METAR LFBE 200030Z AUTO 10004KT CAVOK 17/15 Q1018 TEMPO SCT050CB
02:00
V
18 °C 10 km+ - 090°   090° 3 kt METAR LFBE 200000Z AUTO 09003KT CAVOK 18/15 Q1018 TEMPO SCT050CB
01:30
V
19 °C 10 km+ - 110°   110° 4 kt METAR LFBE 192330Z AUTO 11004KT CAVOK 19/16 Q1018 TEMPO SCT050CB
01:00
V
20 °C 10 km+ - 110°   110° 4 kt METAR LFBE 192300Z AUTO 11004KT CAVOK 20/17 Q1018
00:30
V
20 °C 10 km+ - 110°   110° 4 kt METAR LFBE 192230Z AUTO 11004KT CAVOK 20/17 Q1018
00:00
V
20 °C 10 km+ - 100°   100° 3 kt METAR LFBE 192200Z AUTO 10003KT CAVOK 20/18 Q1018

19 mai 2022

Temps Code Temps Temp. Vue Des nuages Vent METAR/SPECI
23:30
V
20 °C 10 km+ - 070°   070° 3 kt METAR LFBE 192130Z AUTO 07003KT CAVOK 20/18 Q1018
23:00
V
20 °C 10 km+ - Var   Var 1 kt METAR LFBE 192100Z AUTO VRB01KT CAVOK 20/18 Q1018
22:30
V
21 °C 10 km+ - Var   Var 2 kt METAR LFBE 192030Z AUTO VRB02KT CAVOK 21/18 Q1018
22:00
V
22 °C 10 km+ - 130°   130° 1 kt METAR LFBE 192000Z AUTO 13001KT CAVOK 22/19 Q1018 TEMPO VRB25G45KT 1500 TSRAGR SCT010 BKN050CB
21:30
V
24 °C 10 km+ - 080°   080° 2 kt METAR LFBE 191930Z AUTO 08002KT CAVOK 24/19 Q1018 TEMPO VRB25G45KT 1500 TSRAGR SCT010 BKN050CB
21:00
V
26 °C 10 km+ - 130°   130° 2 kt METAR LFBE 191900Z AUTO 13002KT CAVOK 26/20 Q1018 NOSIG
20:30
V
27 °C 10 km+ - 120°   120° 2 kt METAR LFBE 191830Z AUTO 12002KT CAVOK 27/19 Q1018 NOSIG
20:00
V
28 °C 10 km+ - Var   Var 3 kt METAR LFBE 191800Z AUTO VRB03KT CAVOK 28/19 Q1018 NOSIG
19:30
V
29 °C 10 km+ - Var   Var 2 kt METAR LFBE 191730Z AUTO VRB02KT CAVOK 29/19 Q1018 NOSIG
19:00
V
29 °C 10 km+ - 060°   060° 3 kt METAR LFBE 191700Z AUTO 06003KT 010V100 CAVOK 29/19 Q1018 NOSIG
18:30
V
29 °C 10 km+ - Var   Var 3 kt METAR LFBE 191630Z AUTO VRB03KT CAVOK 29/19 Q1018 NOSIG
18:00
V
29 °C 10 km+ - Var   Var 3 kt METAR LFBE 191600Z AUTO VRB03KT CAVOK 29/19 Q1018 NOSIG
17:30
V
28 °C 10 km+ - 090°   090° 4 kt METAR LFBE 191530Z AUTO 09004KT 040V170 CAVOK 28/19 Q1018 NOSIG
17:00
V
28 °C 10 km+ - Var   Var 2 kt METAR LFBE 191500Z AUTO VRB02KT 9999 FEW034 28/20 Q1019 NOSIG
16:30
V
27 °C 10 km+ - Var   Var 3 kt METAR LFBE 191430Z AUTO VRB03KT 9999 FEW033 27/20 Q1019 NOSIG
16:00
V
27 °C 10 km+ 3.200 ft Var   Var 3 kt METAR LFBE 191400Z AUTO VRB03KT 9999 BKN032 27/19 Q1019 NOSIG
15:30
V
27 °C 10 km+ 3.200 ft 090°   090° 4 kt METAR LFBE 191330Z AUTO 09004KT 040V180 9999 BKN032 27/20 Q1020 NOSIG
15:00
V
27 °C 10 km+ 3.000 ft 190°   190° 6 kt METAR LFBE 191300Z AUTO 19006KT 150V230 9999 BKN030 BKN035 27/19 Q1020 NOSIG
14:30
M
25 °C 10 km+ 2.600 ft 190°   190° 5 kt METAR LFBE 191230Z AUTO 19005KT 120V280 9999 BKN026 BKN032 BKN130 25/19 Q1020 NOSIG
14:00
V
25 °C 10 km+ 3.400 ft 180°   180° 5 kt METAR LFBE 191200Z AUTO 18005KT 120V250 9999 SCT026 BKN034 25/18 Q1020 NOSIG
13:30
V
24 °C 10 km+ 3.400 ft 170°   170° 5 kt METAR LFBE 191130Z AUTO 17005KT 130V210 9999 FEW023 BKN034 24/18 Q1020 NOSIG
13:00
V
23 °C 10 km+ 3.300 ft 180°   180° 5 kt METAR LFBE 191100Z AUTO 18005KT 140V220 9999 FEW019 OVC033 23/18 Q1021 NOSIG
12:30
V
23 °C 10 km+ 3.000 ft 180°   180° 5 kt METAR LFBE 191030Z AUTO 18005KT 130V220 9999 FEW020 OVC030 23/18 Q1021 NOSIG
12:00
M
22 °C 10 km+ 2.000 ft 180°   180° 5 kt METAR LFBE 191000Z AUTO 18005KT 130V220 9999 // BKN020 OVC028 22/18 Q1021
11:30
M
22 °C 10 km+ 2.400 ft 170°   170° 4 kt METAR LFBE 190930Z AUTO 17004KT 140V210 9999 OVC024 22/18 Q1021 NOSIG
11:00
V
22 °C 10 km+ 3.000 ft 180°   180° 6 kt METAR LFBE 190900Z AUTO 18006KT 130V210 9999 SCT022 BKN030 BKN035 22/18 Q1021 NOSIG
10:30
M
22 °C 10 km+ 2.100 ft 170°   170° 6 kt METAR LFBE 190830Z AUTO 17006KT 130V210 9999 BKN021 BKN028 OVC033 22/18 Q1021 NOSIG
10:00
V
22 °C 10 km+ 3.000 ft 190°   190° 3 kt METAR LFBE 190800Z AUTO 19003KT 140V230 9999 FEW019 BKN030 BKN140 22/19 Q1021 NOSIG
09:30
V
20 °C 9 km 23.000 ft 160°   160° 7 kt METAR LFBE 190730Z AUTO 16007KT 100V260 9000 FEW027/// SCT094/// BKN230/// ///TCU 20/19 Q1020 BECMG SCT020
09:00
M
20 °C 10 km+ 2.700 ft 200°   200° 3 kt METAR LFBE 190700Z AUTO 20003KT 160V240 9999 OVC027/// ///TCU 20/18 Q1021 TEMPO 4000 -SHRA BECMG SCT020
08:30
V
20 °C 10 km+ 14.000 ft 150°   150° 6 kt METAR LFBE 190630Z AUTO 15006KT 9999 SCT029 BKN140 BKN170 20/17 Q1020 TEMPO 4000 -SHRA BKN010 BKN050TCU
08:00
V
20 °C 10 km+ 16.000 ft 150°   150° 8 kt METAR LFBE 190600Z AUTO 15008KT 100V180 9999 FEW044 SCT140 BKN160 20/17 Q1020 BECMG BKN008
07:30
V
19 °C 10 km+ 17.000 ft 090°   090° 3 kt METAR LFBE 190530Z AUTO 09003KT 070V130 9999 FEW041 BKN170 19/17 Q1020 BECMG BKN008
07:00
V
18 °C 9 km 3.900 ft 140°   140° 5 kt METAR LFBE 190500Z AUTO 14005KT 9000 SCT011 BKN039 BKN170 18/17 Q1020 TEMPO BKN008
06:30
M
18 °C 9 km 1.100 ft 130°   130° 5 kt METAR LFBE 190430Z AUTO 13005KT 9000 OVC011 18/17 Q1020 NOSIG
06:00
I
18 °C 10 km+ 900 ft 230°   230° 3 kt METAR LFBE 190400Z AUTO 23003KT 200V260 9999 BKN009 OVC013 18/17 Q1019 TEMPO 4000 TSRA BKN009 SCT050CB
05:30
M
18 °C 10 km+ 1.100 ft 250°   250° 5 kt METAR LFBE 190330Z AUTO 25005KT 210V270 9999 OVC011 18/17 Q1019 TEMPO 4000 TSRA BKN009 SCT050CB
05:00
I
18 °C 10 km+ 900 ft 230°   230° 5 kt METAR LFBE 190300Z AUTO 23005KT 9999 OVC009/// //////CB 18/17 Q1019 BECMG NSC
04:30
V
18 °C 10 km+ - 230°   230° 5 kt METAR LFBE 190230Z AUTO 23005KT 200V260 9999 FEW013 18/17 Q1018 NOSIG
04:00
V
18 °C 10 km+ - 260°   260° 2 kt METAR LFBE 190200Z AUTO 26002KT CAVOK 18/16 Q1017 TEMPO 4000 SHRA FEW050CB BKN060TCU
03:30
V
20 °C 10 km+ - Var   Var 2 kt METAR LFBE 190130Z AUTO VRB02KT CAVOK 20/16 Q1017 TEMPO 4000 SHRA FEW050CB BKN060TCU
03:00
V
20 °C 10 km+ - 240°   240° 5 kt METAR LFBE 190100Z AUTO 24005KT 200V280 CAVOK 20/16 Q1017 TEMPO 4000 SHRA FEW050CB BKN060TCU
02:30
V
21 °C 10 km+ - 070°   070° 4 kt METAR LFBE 190030Z AUTO 07004KT 040V100 9999 //////CB 21/15 Q1016 TEMPO 4000 SHRA
02:00
V
21 °C 10 km+ - 140°   140° 10 kt METAR LFBE 190000Z AUTO 14010KT 9999 ///CB 21/16 Q1017 TEMPO 4000 SHRA
01:30
V
20 °C 10 km+ - 130°   130° 6 kt METAR LFBE 182330Z AUTO 13006KT 090V170 9999 ///CB 20/17 Q1018 TEMPO 4000 SHRA
01:00
V
20 °C 10 km+ 15.000 ft 160°   160° 5 kt METAR LFBE 182300Z AUTO 16005KT 130V190 9999 VCTS FEW046/// OVC150/// ///CB 20/17 Q1018
00:30
V
21 °C 9 km - 220°   220° 6 kt METAR LFBE 182230Z AUTO 22006KT 160V260 9000 TSRA ///CB 21/18 Q1017
00:00
V
21 °C 10 km+ - 250°   250° 11 kt METAR LFBE 182200Z AUTO 25011KT 9999 RA VCTS ///CB 21/18 Q1017

18 mai 2022

Temps Code Temps Temp. Vue Des nuages Vent METAR/SPECI
23:30
V
22 °C 10 km+ - Var   Var 2 kt METAR LFBE 182130Z AUTO VRB02KT 9999 ///CB 22/19 Q1016
23:00
V
22 °C 10 km+ - 070°   070° 3 kt METAR LFBE 182100Z AUTO 07003KT CAVOK 22/19 Q1015
22:30
V
22 °C 10 km+ - 040°   040° 2 kt METAR LFBE 182030Z AUTO 04002KT CAVOK 22/19 Q1015
22:00
V
23 °C 10 km+ - 040°   040° 2 kt METAR LFBE 182000Z AUTO 04002KT CAVOK 23/19 Q1015 TEMPO VRB15G30KT 2000 TSRA BKN040CB
21:30
V
24 °C 10 km+ - 070°   070° 4 kt METAR LFBE 181930Z AUTO 07004KT CAVOK 24/20 Q1015 TEMPO VRB15G30KT 2000 TSRA BKN040CB
21:00
V
26 °C 10 km+ - 090°   090° 1 kt METAR LFBE 181900Z AUTO 09001KT CAVOK 26/18 Q1015 TEMPO 4000 SHRA SCT050CB BKN060TCU
20:30
V
28 °C 10 km+ - 160°   160° 3 kt METAR LFBE 181830Z AUTO 16003KT CAVOK 28/18 Q1014 TEMPO 4000 SHRA SCT050CB BKN060TCU
20:00
V
30 °C 10 km+ - 170°   170° 3 kt METAR LFBE 181800Z AUTO 17003KT CAVOK 30/18 Q1014 TEMPO 4000 SHRA SCT050CB BKN060TCU
19:30
V
31 °C 10 km+ - 150°   150° 3 kt METAR LFBE 181730Z AUTO 15003KT CAVOK 31/17 Q1015 TEMPO 4000 SHRA SCT050CB BKN060TCU
19:00
V
31 °C 10 km+ - 150°   150° 4 kt METAR LFBE 181700Z AUTO 15004KT CAVOK 31/17 Q1015 TEMPO 4000 SHRA SCT050CB BKN060TCU
18:30
V
31 °C 10 km+ - 140°   140° 5 kt METAR LFBE 181630Z AUTO 14005KT 100V180 CAVOK 31/17 Q1015 TEMPO 4000 SHRA SCT050CB BKN060TCU
18:00
V
32 °C 10 km+ - 130°   130° 6 kt METAR LFBE 181600Z AUTO 13006KT 080V170 CAVOK 32/16 Q1015 NOSIG
17:30
V
32 °C 10 km+ - 130°   130° 5 kt METAR LFBE 181530Z AUTO 13005KT 080V190 CAVOK 32/17 Q1015 NOSIG
17:00
V
32 °C 10 km+ - 140°   140° 7 kt METAR LFBE 181500Z AUTO 14007KT 060V170 CAVOK 32/17 Q1015 NOSIG
Données plus anciennes

Télécharge notre application

Un accès facile à toute la météo aéronautique sur ton téléphone portable et ta tablette.
Avec de nombreuses fonctionnalités non disponibles sur le site Web, comme la prise en charge hors ligne et une liste personnelle d'aéroports.

Nous et des tiers suivons ton comportement sur Internet sur notre site Web à l'aide de cookies. Si tu continues, nous supposons que tu acceptes notre politique en matière de cookies. Apprendre plus